Time;durP1;ratioP1;P1;durP2;ratioP2;P2;SDS_P1;SDS_P2;PMS_P1;PMS_P2;Temp;Humidity;BMP_temperature;BMP_pressure;BME280_temperature;BME280_humidity;BME280_pressure;Samples;Min_cycle;Max_cycle;Signal;HPM_P1;HPM_P2
2021/07/21 00:02:23;;;;;;;12.43;11.10;;;15.80;99.90;;;;;;5047881;28;20196;-78
2021/07/21 00:04:50;;;;;;;15.40;13.83;;;15.80;99.90;;;;;;5039004;28;20216;-77
2021/07/21 00:07:18;;;;;;;14.67;13.17;;;15.70;99.90;;;;;;5047151;28;20614;-77
2021/07/21 00:09:45;;;;;;;14.83;13.43;;;15.70;99.90;;;;;;5028205;28;20603;-78
2021/07/21 00:14:56;;;;;;;15.07;13.57;;;15.60;99.90;;;;;;5041598;28;20207;-78
2021/07/21 00:17:25;;;;;;;15.40;13.80;;;15.60;99.90;;;;;;5045395;28;20198;-78
2021/07/21 00:20:07;;;;;;;15.00;13.40;;;15.60;99.90;;;;;;5048615;28;20191;-77
2021/07/21 00:22:37;;;;;;;16.03;13.83;;;15.50;99.90;;;;;;5046249;28;20656;-77
2021/07/21 00:25:06;;;;;;;16.03;14.43;;;15.50;99.90;;;;;;5047918;28;20547;-78
2021/07/21 00:27:33;;;;;;;14.60;13.20;;;15.50;99.90;;;;;;5043892;28;20207;-77
2021/07/21 00:30:00;;;;;;;15.60;14.00;;;15.40;99.90;;;;;;5034012;28;20241;-77
2021/07/21 00:32:27;;;;;;;16.33;14.20;;;15.40;99.90;;;;;;5047027;28;20206;-77
2021/07/21 00:34:54;;;;;;;15.47;13.87;;;15.40;99.90;;;;;;5043439;28;20222;-77
2021/07/21 00:37:21;;;;;;;16.03;14.43;;;15.40;99.90;;;;;;5022826;28;20192;-77
2021/07/21 00:39:49;;;;;;;17.90;14.33;;;15.30;99.90;;;;;;5049277;28;20202;-77
2021/07/21 00:42:16;;;;;;;16.93;14.40;;;15.30;99.90;;;;;;5042885;28;20187;-77
2021/07/21 00:44:44;;;;;;;16.63;14.80;;;15.30;99.90;;;;;;5048982;28;20238;-77
2021/07/21 00:47:11;;;;;;;16.47;14.77;;;15.20;99.90;;;;;;5043003;28;20575;-78
2021/07/21 00:49:38;;;;;;;16.47;14.70;;;15.20;99.90;;;;;;5048179;28;20214;-77
2021/07/21 00:52:08;;;;;;;15.03;13.53;;;15.20;99.90;;;;;;5045594;28;20278;-77
2021/07/21 00:54:36;;;;;;;16.53;14.67;;;15.20;99.90;;;;;;5016649;28;20285;-77
2021/07/21 00:57:05;;;;;;;16.17;14.60;;;15.20;99.90;;;;;;5045834;28;20194;-77
2021/07/21 00:59:34;;;;;;;16.63;13.73;;;15.10;99.90;;;;;;5023806;28;20218;-78
2021/07/21 01:02:02;;;;;;;15.80;14.20;;;15.10;99.90;;;;;;5049539;28;20199;-77
2021/07/21 01:04:29;;;;;;;15.03;13.53;;;15.10;99.90;;;;;;5038360;28;20300;-77
2021/07/21 01:06:59;;;;;;;16.30;14.70;;;15.10;99.90;;;;;;5041016;28;20675;-77
2021/07/21 01:09:28;;;;;;;15.37;13.80;;;15.10;99.90;;;;;;5030554;28;20214;-77
2021/07/21 01:12:07;;;;;;;15.70;14.20;;;15.10;99.90;;;;;;5044254;28;20247;-77
2021/07/21 01:14:51;;;;;;;16.43;14.73;;;15.20;99.90;;;;;;5043108;28;20221;-77
2021/07/21 01:17:23;;;;;;;15.30;13.90;;;15.20;99.90;;;;;;5046376;28;20206;-77
2021/07/21 01:20:09;;;;;;;16.20;14.50;;;15.20;99.90;;;;;;5042750;28;20282;-77
2021/07/21 01:22:40;;;;;;;15.67;14.00;;;15.20;99.90;;;;;;5028908;28;20205;-77
2021/07/21 01:25:13;;;;;;;15.93;14.23;;;15.10;99.90;;;;;;5045050;28;20199;-77
2021/07/21 01:28:08;;;;;;;16.10;14.23;;;15.10;99.90;;;;;;5028400;28;20209;-77
2021/07/21 01:30:49;;;;;;;15.93;14.33;;;15.10;99.90;;;;;;5044941;28;20196;-77
2021/07/21 01:33:21;;;;;;;17.27;15.53;;;15.10;99.90;;;;;;5043211;28;20223;-77
2021/07/21 01:35:56;;;;;;;15.93;14.33;;;15.10;99.90;;;;;;5025816;28;20714;-78
2021/07/21 01:38:31;;;;;;;15.93;14.33;;;15.10;99.90;;;;;;5046018;28;20220;-77
2021/07/21 01:41:05;;;;;;;15.43;13.93;;;15.10;99.90;;;;;;5029299;28;20551;-77
2021/07/21 01:43:34;;;;;;;15.10;13.70;;;15.00;99.90;;;;;;5047671;28;20222;-77
2021/07/21 01:46:05;;;;;;;16.00;14.27;;;15.00;99.90;;;;;;5037482;28;20715;-77
2021/07/21 01:48:36;;;;;;;15.00;13.50;;;15.00;99.90;;;;;;5025097;28;20203;-77
2021/07/21 01:51:05;;;;;;;16.53;14.83;;;15.00;99.90;;;;;;5049210;28;20194;-77
2021/07/21 01:53:34;;;;;;;17.60;15.70;;;14.90;99.90;;;;;;5030334;28;20288;-77
2021/07/21 01:56:05;;;;;;;17.63;15.93;;;15.00;99.90;;;;;;5044215;28;20191;-77
2021/07/21 01:58:34;;;;;;;17.03;15.23;;;14.90;99.90;;;;;;5043699;28;20677;-77
2021/07/21 02:01:32;;;;;;;16.50;14.73;;;14.90;99.90;;;;;;5034006;28;20327;-77
2021/07/21 02:04:06;;;;;;;16.47;14.87;;;14.90;99.90;;;;;;5040008;28;20222;-77
2021/07/21 02:06:36;;;;;;;16.73;15.03;;;14.80;99.90;;;;;;5048934;28;20267;-77
2021/07/21 02:09:07;;;;;;;16.03;14.50;;;14.80;99.90;;;;;;5047891;28;20261;-77
2021/07/21 02:11:35;;;;;;;18.17;15.37;;;14.90;99.90;;;;;;5046620;28;20205;-77
2021/07/21 02:14:08;;;;;;;17.27;15.50;;;14.90;99.90;;;;;;5049867;28;20217;-77
2021/07/21 02:16:50;;;;;;;17.00;15.33;;;14.90;99.90;;;;;;5048842;28;20573;-78
2021/07/21 02:19:25;;;;;;;18.67;16.13;;;14.90;99.90;;;;;;5048975;28;20702;-77
2021/07/21 02:22:06;;;;;;;16.33;14.63;;;14.90;99.90;;;;;;5037391;28;20194;-77
2021/07/21 02:24:39;;;;;;;17.83;16.03;;;15.00;99.90;;;;;;5034258;28;20588;-77
2021/07/21 02:27:08;;;;;;;17.60;15.87;;;14.90;99.90;;;;;;5048228;28;20199;-77
2021/07/21 02:29:36;;;;;;;15.77;14.30;;;14.90;99.90;;;;;;5045843;28;20226;-77
2021/07/21 02:32:08;;;;;;;16.17;14.67;;;14.90;99.90;;;;;;5049802;28;20345;-76
2021/07/21 02:34:36;;;;;;;18.10;13.90;;;15.00;99.90;;;;;;5040488;28;20223;-76
2021/07/21 02:37:04;;;;;;;17.90;15.00;;;15.00;99.90;;;;;;5051883;28;20188;-76
2021/07/21 02:39:39;;;;;;;17.30;15.60;;;15.00;99.90;;;;;;5046445;28;20205;-76
2021/07/21 02:42:07;;;;;;;13.37;10.70;;;15.10;99.90;;;;;;5049584;28;20221;-77
2021/07/21 02:44:45;;;;;;;12.10;9.80;;;15.20;99.90;;;;;;5055521;28;20583;-81
2021/07/21 02:47:13;;;;;;;12.23;9.50;;;15.20;99.90;;;;;;5058235;28;20566;-80
2021/07/21 02:49:41;;;;;;;11.70;8.67;;;15.20;99.90;;;;;;5054454;28;20305;-80
2021/07/21 02:52:16;;;;;;;9.47;8.27;;;15.20;99.90;;;;;;5054294;28;20558;-80
2021/07/21 02:55:00;;;;;;;9.97;8.30;;;15.20;99.90;;;;;;5043118;28;20226;-80
2021/07/21 02:57:34;;;;;;;10.70;8.63;;;15.20;99.90;;;;;;5047855;28;20183;-80
2021/07/21 03:00:10;;;;;;;10.30;8.60;;;15.20;99.90;;;;;;5038703;28;20195;-80
2021/07/21 03:02:38;;;;;;;11.50;9.57;;;15.20;99.90;;;;;;5041042;28;20214;-80
2021/07/21 03:05:11;;;;;;;12.73;10.53;;;15.20;99.90;;;;;;5021158;28;20199;-81
2021/07/21 03:07:49;;;;;;;11.83;9.50;;;15.10;99.90;;;;;;5024859;28;20227;-80
2021/07/21 03:10:21;;;;;;;10.80;9.23;;;15.10;99.90;;;;;;5027836;28;20214;-81
2021/07/21 03:13:06;;;;;;;10.97;9.30;;;15.10;99.90;;;;;;5039182;28;20241;-81
2021/07/21 03:15:42;;;;;;;14.80;10.43;;;15.10;99.90;;;;;;5053874;28;20197;-81
2021/07/21 03:18:18;;;;;;;15.03;11.37;;;15.00;99.90;;;;;;5045195;28;20286;-80
2021/07/21 03:20:50;;;;;;;13.73;11.90;;;14.90;99.90;;;;;;5053334;28;20186;-79
2021/07/21 03:23:19;;;;;;;11.70;9.27;;;14.90;99.90;;;;;;5033592;28;20305;-76
2021/07/21 03:26:05;;;;;;;12.90;11.20;;;14.90;99.90;;;;;;5018000;28;20229;-77
2021/07/21 03:28:38;;;;;;;12.40;10.23;;;14.80;99.90;;;;;;5021483;28;20269;-79
2021/07/21 03:31:08;;;;;;;13.40;11.73;;;14.80;99.90;;;;;;5028322;28;20194;-79
2021/07/21 03:33:36;;;;;;;14.73;13.23;;;14.80;99.90;;;;;;5036998;28;20220;-80
2021/07/21 03:36:15;;;;;;;14.27;12.77;;;14.80;99.90;;;;;;5048729;28;20254;-78
2021/07/21 03:39:02;;;;;;;12.97;10.87;;;14.80;99.90;;;;;;5033591;28;20197;-78
2021/07/21 03:41:42;;;;;;;12.50;10.30;;;14.80;99.90;;;;;;5046347;28;20592;-79
2021/07/21 03:44:11;;;;;;;16.50;14.93;;;14.80;99.90;;;;;;5049218;28;20213;-78
2021/07/21 03:46:41;;;;;;;16.30;14.53;;;14.80;99.90;;;;;;5033456;28;20208;-78
2021/07/21 03:49:09;;;;;;;15.77;14.30;;;14.80;99.90;;;;;;5029187;28;20282;-78
2021/07/21 03:51:55;;;;;;;17.10;15.43;;;14.70;99.90;;;;;;5054456;28;20665;-78
2021/07/21 03:54:38;;;;;;;15.70;14.30;;;14.70;99.90;;;;;;5049438;28;20222;-78
2021/07/21 03:57:29;;;;;;;14.73;11.70;;;14.60;99.90;;;;;;5043595;28;20279;-79
2021/07/21 03:59:57;;;;;;;12.43;9.93;;;14.70;99.90;;;;;;5041988;28;20202;-78
2021/07/21 04:02:26;;;;;;;14.27;11.43;;;14.60;99.90;;;;;;5030811;28;20632;-78
2021/07/21 04:04:58;;;;;;;12.70;10.10;;;14.70;99.90;;;;;;5046991;28;20220;-78
2021/07/21 04:07:26;;;;;;;14.13;10.87;;;14.60;99.90;;;;;;5046003;28;20237;-78
2021/07/21 04:10:01;;;;;;;14.00;9.93;;;14.70;99.90;;;;;;5018930;28;20195;-79
2021/07/21 04:12:37;;;;;;;16.97;15.30;;;14.60;99.90;;;;;;5029489;28;20203;-79
2021/07/21 04:15:11;;;;;;;15.57;11.30;;;14.60;99.90;;;;;;5050571;28;20194;-78
2021/07/21 04:17:47;;;;;;;13.30;10.83;;;14.60;99.90;;;;;;5026158;28;20201;-78
2021/07/21 04:20:23;;;;;;;14.13;11.53;;;14.60;99.90;;;;;;5043454;28;20553;-78
2021/07/21 04:22:51;;;;;;;16.00;11.10;;;14.70;99.90;;;;;;5028838;28;20197;-78
2021/07/21 04:25:22;;;;;;;15.20;11.60;;;14.70;99.90;;;;;;5045001;28;20594;-78
2021/07/21 04:27:57;;;;;;;13.70;11.67;;;14.90;99.90;;;;;;5048508;28;20202;-78
2021/07/21 04:30:30;;;;;;;13.27;11.07;;;15.00;99.90;;;;;;5048277;28;20209;-78
2021/07/21 04:32:59;;;;;;;15.93;12.40;;;15.20;99.90;;;;;;5028742;28;20184;-78
2021/07/21 04:35:28;;;;;;;16.57;12.43;;;15.40;99.90;;;;;;5047225;28;20191;-78
2021/07/21 04:38:00;;;;;;;14.33;11.27;;;15.40;99.90;;;;;;5043199;28;20191;-78
2021/07/21 04:40:43;;;;;;;12.67;11.37;;;15.50;99.90;;;;;;5033291;28;20391;-78
2021/07/21 04:43:30;;;;;;;13.83;11.70;;;15.60;99.90;;;;;;5035920;28;20219;-78
2021/07/21 04:45:59;;;;;;;15.30;13.73;;;15.70;99.90;;;;;;5044506;28;20640;-78
2021/07/21 04:48:28;;;;;;;15.47;12.00;;;15.80;99.90;;;;;;5048153;28;20563;-78
2021/07/21 04:51:00;;;;;;;14.33;12.83;;;15.80;99.90;;;;;;5048058;28;20198;-78
2021/07/21 04:55:57;;;;;;;15.93;14.00;;;15.90;99.90;;;;;;4954344;28;20201;-76
2021/07/21 04:58:25;;;;;;;15.20;13.70;;;15.90;99.90;;;;;;4968422;28;20195;-76
2021/07/21 05:01:01;;;;;;;16.20;13.53;;;15.90;99.90;;;;;;4958535;28;20198;-76
2021/07/21 05:03:31;;;;;;;14.17;12.13;;;16.00;99.90;;;;;;4953610;28;20282;-76
2021/07/21 05:06:00;;;;;;;15.13;12.17;;;16.20;99.90;;;;;;4949847;28;20193;-76
2021/07/21 05:08:37;;;;;;;14.27;12.53;;;16.30;99.90;;;;;;4950016;28;20200;-76
2021/07/21 05:11:21;;;;;;;13.90;12.47;;;16.40;99.90;;;;;;4967534;28;20190;-76
2021/07/21 05:13:49;;;;;;;14.23;12.73;;;16.50;99.90;;;;;;4966882;28;20223;-76
2021/07/21 05:16:19;;;;;;;15.90;11.50;;;16.70;99.90;;;;;;4953360;28;20192;-76
2021/07/21 05:18:48;;;;;;;12.63;11.00;;;16.70;99.90;;;;;;4956005;28;20206;-76
2021/07/21 05:21:24;;;;;;;14.90;11.80;;;16.90;99.90;;;;;;4951455;28;20257;-76
2021/07/21 05:23:51;;;;;;;14.57;10.87;;;16.90;99.90;;;;;;4973383;28;20211;-76
2021/07/21 05:26:18;;;;;;;12.47;10.53;;;16.90;99.90;;;;;;4951500;28;20190;-76
2021/07/21 05:29:06;;;;;;;12.80;10.63;;;17.00;99.90;;;;;;4949913;28;20223;-76
2021/07/21 05:31:45;;;;;;;12.77;10.77;;;17.10;99.90;;;;;;4967685;28;20211;-76
2021/07/21 05:34:29;;;;;;;12.23;10.53;;;17.30;99.90;;;;;;4965104;28;20268;-77
2021/07/21 05:37:14;;;;;;;14.20;11.67;;;17.50;99.90;;;;;;4964386;28;20241;-76
2021/07/21 05:39:55;;;;;;;13.70;11.90;;;17.50;99.90;;;;;;4966438;28;20189;-77
2021/07/21 05:42:32;;;;;;;13.40;12.00;;;17.70;99.90;;;;;;4952862;28;20206;-76
2021/07/21 05:44:59;;;;;;;14.63;13.23;;;17.80;99.90;;;;;;4949333;28;20217;-76
2021/07/21 05:47:26;;;;;;;14.93;13.43;;;18.00;99.90;;;;;;4951489;29;20197;-77
2021/07/21 05:49:55;;;;;;;14.27;12.77;;;18.20;99.90;;;;;;4971977;28;20225;-76
2021/07/21 05:52:33;;;;;;;15.57;13.90;;;18.40;99.90;;;;;;4953179;28;20206;-77
2021/07/21 05:55:00;;;;;;;14.23;12.83;;;18.90;99.90;;;;;;4967171;28;20221;-76
2021/07/21 05:57:29;;;;;;;16.90;13.90;;;19.40;99.90;;;;;;4949397;28;20208;-77
2021/07/21 06:00:08;;;;;;;15.20;13.60;;;19.80;99.90;;;;;;4948930;28;20194;-77
2021/07/21 06:02:44;;;;;;;15.83;14.33;;;20.40;99.90;;;;;;4969767;28;20289;-77
2021/07/21 06:05:18;;;;;;;15.57;13.83;;;20.80;99.90;;;;;;4950804;28;20220;-77
2021/07/21 06:08:08;;;;;;;15.17;13.60;;;21.10;99.90;;;;;;4967825;28;20650;-77
2021/07/21 06:10:53;;;;;;;16.30;14.60;;;21.20;99.90;;;;;;4943880;28;20220;-77
2021/07/21 06:13:21;;;;;;;14.43;12.93;;;21.00;99.90;;;;;;4951022;29;20236;-77
2021/07/21 06:15:48;;;;;;;15.67;12.03;;;21.20;99.90;;;;;;4953109;28;20630;-79
2021/07/21 06:18:15;;;;;;;16.53;14.77;;;21.40;99.90;;;;;;4966665;28;20248;-77
2021/07/21 06:20:47;;;;;;;15.27;13.70;;;21.30;99.90;;;;;;4971956;28;20183;-76
2021/07/21 06:23:14;;;;;;;16.97;15.47;;;21.10;99.90;;;;;;4950547;28;20196;-77
2021/07/21 06:25:47;;;;;;;16.93;15.30;;;20.80;99.90;;;;;;4951574;28;20221;-77
2021/07/21 06:28:25;;;;;;;16.40;14.83;;;20.50;99.90;;;;;;4950958;28;20200;-77
2021/07/21 06:30:52;;;;;;;15.30;13.93;;;20.40;99.90;;;;;;4951271;28;20231;-77
2021/07/21 06:33:23;;;;;;;15.80;14.40;;;20.50;99.90;;;;;;4955334;28;20296;-77
2021/07/21 06:35:51;;;;;;;16.63;15.13;;;20.50;99.90;;;;;;4956082;28;20224;-77
2021/07/21 06:38:20;;;;;;;16.27;14.77;;;20.60;99.90;;;;;;4955891;28;20737;-77
2021/07/21 06:41:14;;;;;;;16.93;15.20;;;20.70;99.90;;;;;;4961020;28;20212;-77
2021/07/21 06:43:42;;;;;;;16.93;15.37;;;20.70;99.90;;;;;;4947903;28;20230;-77
2021/07/21 06:46:20;;;;;;;17.60;15.90;;;20.60;99.90;;;;;;4948483;28;20718;-78
2021/07/21 06:48:57;;;;;;;17.80;16.20;;;20.70;99.90;;;;;;4951758;28;20809;-76
2021/07/21 06:51:28;;;;;;;16.73;15.13;;;21.00;99.90;;;;;;4953580;28;20308;-77
2021/07/21 06:53:55;;;;;;;16.63;14.50;;;21.70;99.90;;;;;;4954256;28;20252;-77
2021/07/21 06:56:22;;;;;;;17.37;15.50;;;22.20;99.90;;;;;;4971405;28;20229;-78
2021/07/21 06:59:11;;;;;;;17.03;15.50;;;22.10;99.90;;;;;;4968567;28;20293;-77
2021/07/21 07:01:38;;;;;;;16.80;15.17;;;22.60;99.90;;;;;;4970003;28;20254;-77
2021/07/21 07:04:24;;;;;;;17.13;15.43;;;23.10;99.90;;;;;;4972528;28;20225;-77
2021/07/21 07:07:12;;;;;;;16.13;14.53;;;23.50;99.90;;;;;;4942674;28;20202;-77
2021/07/21 07:09:54;;;;;;;15.93;13.33;;;23.80;99.90;;;;;;4975243;28;20220;-77
2021/07/21 07:12:27;;;;;;;16.57;14.87;;;23.90;99.90;;;;;;4956348;28;20229;-77
2021/07/21 07:14:54;;;;;;;15.93;12.30;;;23.80;99.90;;;;;;4976102;28;20612;-77
2021/07/21 07:17:22;;;;;;;17.33;15.60;;;23.70;99.90;;;;;;4971956;28;20186;-77
2021/07/21 07:19:50;;;;;;;18.43;13.27;;;23.80;99.90;;;;;;4953532;28;20685;-77
2021/07/21 07:22:18;;;;;;;14.67;13.17;;;24.30;99.90;;;;;;4953221;28;20535;-77
2021/07/21 07:24:45;;;;;;;15.97;14.37;;;24.30;99.90;;;;;;4969122;28;20218;-77
2021/07/21 07:27:12;;;;;;;16.97;15.00;;;24.20;99.90;;;;;;4971755;28;20719;-77
2021/07/21 07:29:39;;;;;;;17.90;16.10;;;24.30;99.90;;;;;;4969613;28;20210;-77
2021/07/21 07:32:06;;;;;;;15.53;14.13;;;24.30;99.90;;;;;;4975669;28;20591;-76
2021/07/21 07:34:34;;;;;;;15.70;14.10;;;24.40;99.90;;;;;;4972704;28;20683;-77
2021/07/21 07:37:00;;;;;;;16.00;14.60;;;24.80;99.90;;;;;;4970930;28;20198;-78
2021/07/21 07:39:29;;;;;;;16.43;14.93;;;25.10;99.90;;;;;;4953401;28;20192;-77
2021/07/21 07:41:59;;;;;;;14.40;12.60;;;25.20;99.90;;;;;;4969156;28;20204;-77
2021/07/21 07:44:25;;;;;;;13.80;11.10;;;25.20;99.90;;;;;;4969095;28;20291;-77
2021/07/21 07:46:52;;;;;;;17.23;14.47;;;25.20;99.90;;;;;;4971731;28;20198;-78
2021/07/21 07:49:19;;;;;;;21.20;16.70;;;24.80;99.90;;;;;;4955903;28;20221;-77
2021/07/21 07:51:46;;;;;;;15.63;11.47;;;24.70;99.90;;;;;;4973990;28;20549;-77
2021/07/21 07:54:13;;;;;;;15.47;13.13;;;24.90;99.90;;;;;;4952708;28;20224;-77
2021/07/21 07:56:42;;;;;;;14.40;11.17;;;24.80;99.90;;;;;;4969271;28;20204;-77
2021/07/21 07:59:09;;;;;;;13.20;11.23;;;24.70;99.90;;;;;;4950321;28;20205;-78
2021/07/21 08:01:36;;;;;;;16.03;14.33;;;24.70;99.90;;;;;;4971768;28;20662;-78
2021/07/21 08:04:03;;;;;;;17.03;15.23;;;25.10;99.90;;;;;;4969318;28;20217;-77
2021/07/21 08:06:30;;;;;;;17.33;15.80;;;25.00;99.90;;;;;;4952325;28;20194;-77
2021/07/21 08:08:57;;;;;;;15.90;14.40;;;25.00;99.90;;;;;;4965275;28;20196;-77
2021/07/21 08:11:23;;;;;;;13.70;12.30;;;24.90;99.90;;;;;;4971273;28;20209;-78
2021/07/21 08:13:52;;;;;;;16.43;14.93;;;24.40;99.90;;;;;;4950620;28;20232;-77
2021/07/21 08:16:18;;;;;;;17.93;16.30;;;24.50;99.90;;;;;;4953545;28;20201;-77
2021/07/21 08:18:46;;;;;;;18.73;16.90;;;24.60;99.90;;;;;;4970174;28;20205;-77
2021/07/21 08:21:12;;;;;;;17.73;16.13;;;24.50;99.90;;;;;;4954911;28;20263;-77
2021/07/21 08:23:39;;;;;;;17.47;15.80;;;24.70;99.90;;;;;;4973167;28;20203;-77
2021/07/21 08:26:06;;;;;;;17.43;15.83;;;24.80;99.90;;;;;;4951436;28;20200;-77
2021/07/21 08:28:35;;;;;;;17.00;15.50;;;24.60;99.90;;;;;;4950718;28;20691;-77
2021/07/21 08:31:03;;;;;;;17.73;16.07;;;24.40;99.90;;;;;;4967639;28;20560;-77
2021/07/21 08:33:30;;;;;;;17.10;15.60;;;24.80;99.90;;;;;;4954497;28;20200;-77
2021/07/21 08:35:57;;;;;;;17.13;15.63;;;25.10;99.90;;;;;;4950351;28;20264;-76
2021/07/21 08:38:23;;;;;;;16.00;14.47;;;25.50;99.90;;;;;;4966555;28;20209;-77
2021/07/21 08:40:50;;;;;;;17.00;15.43;;;25.50;99.90;;;;;;4974317;28;20250;-77
2021/07/21 08:43:17;;;;;;;16.80;15.17;;;25.70;99.90;;;;;;4952276;28;20189;-77
2021/07/21 08:45:44;;;;;;;16.00;14.50;;;25.90;99.90;;;;;;4968352;28;20225;-76
2021/07/21 08:48:14;;;;;;;16.47;14.80;;;26.10;99.90;;;;;;4972380;28;20280;-77
2021/07/21 08:50:44;;;;;;;17.13;15.63;;;26.20;99.90;;;;;;4952544;28;20255;-77
2021/07/21 08:53:10;;;;;;;16.30;14.90;;;26.00;99.90;;;;;;4969480;28;20194;-77
2021/07/21 08:55:38;;;;;;;17.53;15.83;;;26.20;99.90;;;;;;4950756;28;20233;-77
2021/07/21 08:58:05;;;;;;;17.30;15.67;;;26.00;99.90;;;;;;4971510;28;20252;-77
2021/07/21 09:00:33;;;;;;;15.33;14.03;;;26.20;99.90;;;;;;4971029;28;20197;-77
2021/07/21 09:03:02;;;;;;;16.07;14.67;;;26.50;99.90;;;;;;4967581;28;20625;-77
2021/07/21 09:05:31;;;;;;;15.10;13.60;;;26.30;99.90;;;;;;4966794;28;20261;-77
2021/07/21 09:07:58;;;;;;;14.17;12.87;;;26.40;99.90;;;;;;4945088;28;20202;-77
2021/07/21 09:10:25;;;;;;;14.93;13.30;;;26.70;99.90;;;;;;4952733;28;20221;-77
2021/07/21 09:12:52;;;;;;;14.40;12.87;;;27.00;99.90;;;;;;4968348;28;20220;-77
2021/07/21 09:15:22;;;;;;;14.43;12.97;;;26.70;99.90;;;;;;4952354;28;20218;-77
2021/07/21 09:18:05;;;;;;;14.53;13.23;;;26.70;99.90;;;;;;4970958;28;20202;-77
2021/07/21 09:20:35;;;;;;;15.50;13.80;;;26.80;99.90;;;;;;4973625;28;20206;-77
2021/07/21 09:23:02;;;;;;;14.30;12.87;;;26.70;99.90;;;;;;4974547;28;20190;-77
2021/07/21 09:25:31;;;;;;;14.73;13.47;;;27.00;99.90;;;;;;4966390;28;20281;-77
2021/07/21 09:28:00;;;;;;;12.50;10.70;;;27.20;99.90;;;;;;4955820;28;20208;-77
2021/07/21 09:30:29;;;;;;;14.20;12.83;;;27.50;99.90;;;;;;4967382;28;20568;-77
2021/07/21 09:32:58;;;;;;;14.17;12.77;;;27.50;99.90;;;;;;4970098;28;20561;-77
2021/07/21 09:35:27;;;;;;;14.40;13.10;;;27.60;99.90;;;;;;4970210;28;20218;-77
2021/07/21 09:37:57;;;;;;;13.57;12.40;;;27.40;99.90;;;;;;4954754;28;20197;-77
2021/07/21 09:40:25;;;;;;;13.23;12.20;;;27.60;99.90;;;;;;4967441;28;20193;-77
2021/07/21 09:42:52;;;;;;;13.67;12.53;;;27.90;99.90;;;;;;4972835;28;20198;-77
2021/07/21 09:45:20;;;;;;;14.40;13.10;;;28.00;99.90;;;;;;4951535;28;20356;-77
2021/07/21 09:47:51;;;;;;;12.53;11.23;;;27.90;99.90;;;;;;4967977;28;20194;-77
2021/07/21 09:50:23;;;;;;;13.07;11.80;;;27.70;99.90;;;;;;4966893;28;20189;-77
2021/07/21 09:52:52;;;;;;;14.10;12.80;;;27.80;99.90;;;;;;4966850;28;20315;-77
2021/07/21 09:55:21;;;;;;;14.83;13.43;;;27.90;99.90;;;;;;4966476;28;20245;-77
2021/07/21 09:57:57;;;;;;;13.83;12.43;;;27.70;99.90;;;;;;4954620;28;20190;-77
2021/07/21 10:00:26;;;;;;;10.63;8.10;;;27.80;99.90;;;;;;4969286;28;20201;-77
2021/07/21 10:03:11;;;;;;;13.80;12.23;;;27.80;99.90;;;;;;4965769;28;20198;-77
2021/07/21 10:06:02;;;;;;;10.17;8.37;;;27.50;99.90;;;;;;4953004;28;20222;-77
2021/07/21 10:08:35;;;;;;;13.60;12.40;;;27.40;99.90;;;;;;4948450;28;20204;-77
2021/07/21 10:11:21;;;;;;;9.90;8.50;;;27.80;99.90;;;;;;4958832;28;20230;-77
2021/07/21 10:13:49;;;;;;;14.70;8.03;;;28.00;99.90;;;;;;4972334;28;20217;-77
2021/07/21 10:16:31;;;;;;;9.90;8.30;;;28.10;99.90;;;;;;4968502;28;20186;-77
2021/07/21 10:19:03;;;;;;;9.40;8.10;;;28.10;99.90;;;;;;4947974;28;20256;-77
2021/07/21 10:21:30;;;;;;;10.13;7.87;;;28.30;99.90;;;;;;4967042;28;20213;-77
2021/07/21 10:23:57;;;;;;;12.17;9.13;;;28.20;99.90;;;;;;4950924;28;20217;-77
2021/07/21 10:26:27;;;;;;;13.50;8.23;;;28.20;99.90;;;;;;4954632;28;20198;-77
2021/07/21 10:28:55;;;;;;;11.80;8.57;;;28.10;99.90;;;;;;4973235;28;20202;-77
2021/07/21 10:31:22;;;;;;;9.80;8.80;;;28.00;99.90;;;;;;4972690;28;20767;-77
2021/07/21 10:33:50;;;;;;;9.90;8.87;;;27.90;99.90;;;;;;4958593;28;20222;-76
2021/07/21 10:36:17;;;;;;;10.23;8.77;;;27.70;99.90;;;;;;4954664;28;20193;-77
2021/07/21 10:38:44;;;;;;;10.37;8.97;;;27.80;99.90;;;;;;4952727;28;20205;-77
2021/07/21 10:41:13;;;;;;;10.87;9.77;;;27.60;99.90;;;;;;4969651;28;20186;-77
2021/07/21 10:43:43;;;;;;;11.97;10.67;;;27.50;99.90;;;;;;4972318;28;20668;-77
2021/07/21 10:46:32;;;;;;;12.00;9.53;;;27.50;99.90;;;;;;4973147;28;20190;-77
2021/07/21 10:49:15;;;;;;;10.90;9.80;;;27.30;99.90;;;;;;4939125;28;20564;-77
2021/07/21 10:52:13;;;;;;;10.37;9.37;;;27.40;99.90;;;;;;4952019;28;20246;-77
2021/07/21 10:54:49;;;;;;;10.73;9.63;;;27.40;99.90;;;;;;5007899;22;20283;-79
2021/07/21 11:00:09;;;;;;;11.57;10.27;;;27.40;99.90;;;;;;5000150;28;20241;-78
2021/07/21 11:02:36;;;;;;;11.57;10.13;;;27.40;99.90;;;;;;5023342;28;20185;-79
2021/07/21 11:05:03;;;;;;;12.33;10.07;;;27.60;99.90;;;;;;5009715;28;20579;-79
2021/07/21 11:07:50;;;;;;;12.40;11.07;;;27.40;99.90;;;;;;5027299;28;20203;-79
2021/07/21 11:10:29;;;;;;;11.87;10.57;;;27.20;99.90;;;;;;5021369;28;20216;-78
2021/07/21 11:12:56;;;;;;;12.53;10.83;;;27.00;99.90;;;;;;5009992;28;20208;-78
2021/07/21 11:15:41;;;;;;;13.20;11.43;;;27.00;99.90;;;;;;5025380;28;20208;-78
2021/07/21 11:18:50;;;;;;;11.57;10.37;;;26.90;99.90;;;;;;5025108;28;20670;-78
2021/07/21 11:21:20;;;;;;;11.63;10.03;;;26.60;99.90;;;;;;5019550;28;20188;-77
2021/07/21 11:24:12;;;;;;;10.90;9.80;;;26.40;99.90;;;;;;5009384;28;20211;-79
2021/07/21 11:26:45;;;;;;;14.53;10.53;;;26.50;99.90;;;;;;5024129;28;20681;-79
2021/07/21 11:29:49;;;;;;;11.33;10.23;;;26.50;99.90;;;;;;5008602;28;20199;-78
2021/07/21 11:32:35;;;;;;;12.17;10.80;;;26.70;99.90;;;;;;5002530;28;20265;-78
2021/07/21 11:35:39;;;;;;;11.67;10.53;;;26.60;99.90;;;;;;5015648;28;20627;-78
2021/07/21 11:38:21;;;;;;;14.17;12.83;;;26.70;99.90;;;;;;5014546;28;20249;-79
2021/07/21 11:40:48;;;;;;;12.30;11.07;;;26.50;99.90;;;;;;5018835;28;20706;-79
2021/07/21 11:43:32;;;;;;;11.77;10.57;;;26.50;99.90;;;;;;5005242;28;20204;-79
2021/07/21 11:46:06;;;;;;;12.50;10.70;;;26.60;99.90;;;;;;5014100;28;20219;-78
2021/07/21 11:48:35;;;;;;;12.83;10.47;;;26.50;99.90;;;;;;5022449;28;20194;-78
2021/07/21 11:51:02;;;;;;;11.33;10.23;;;26.70;99.90;;;;;;5025386;28;20196;-78
2021/07/21 11:53:29;;;;;;;11.87;10.67;;;26.70;99.90;;;;;;5025110;28;20195;-79
2021/07/21 11:56:06;;;;;;;14.43;11.73;;;26.60;99.90;;;;;;5002872;28;20254;-78
2021/07/21 11:58:33;;;;;;;12.07;10.73;;;26.30;99.90;;;;;;5027610;28;20186;-78
2021/07/21 12:01:01;;;;;;;15.30;13.90;;;26.50;99.90;;;;;;5007142;28;20198;-78
2021/07/21 12:03:28;;;;;;;16.57;15.07;;;26.40;99.90;;;;;;5027978;28;20675;-78
2021/07/21 12:05:57;;;;;;;16.30;14.90;;;26.30;99.90;;;;;;4999009;28;20708;-78
2021/07/21 12:08:24;;;;;;;15.97;14.53;;;26.30;99.90;;;;;;5006369;28;20196;-78
2021/07/21 12:10:51;;;;;;;15.40;14.00;;;26.40;99.90;;;;;;5009322;28;20204;-78
2021/07/21 12:13:20;;;;;;;16.47;13.77;;;26.30;99.90;;;;;;5027748;28;20188;-78
2021/07/21 12:15:57;;;;;;;16.40;14.87;;;26.10;99.90;;;;;;5035619;28;20242;-80
2021/07/21 12:18:25;;;;;;;16.27;14.77;;;26.10;99.90;;;;;;5028402;28;20206;-78
2021/07/21 12:20:52;;;;;;;16.50;15.00;;;26.00;99.90;;;;;;5009953;28;20190;-78
2021/07/21 12:23:23;;;;;;;16.67;15.17;;;25.90;99.90;;;;;;5006142;28;20209;-78
2021/07/21 12:25:49;;;;;;;16.20;14.60;;;26.10;99.90;;;;;;5008953;28;20705;-79
2021/07/21 12:28:16;;;;;;;16.73;15.03;;;26.00;99.90;;;;;;5006339;28;20200;-78
2021/07/21 12:30:43;;;;;;;15.97;14.47;;;26.00;99.90;;;;;;5026841;28;20200;-78
2021/07/21 12:33:10;;;;;;;15.13;13.63;;;25.90;99.90;;;;;;5025226;28;20230;-80
2021/07/21 12:35:37;;;;;;;18.07;15.33;;;26.00;99.90;;;;;;5008983;28;20232;-79
2021/07/21 12:38:04;;;;;;;15.57;14.13;;;25.90;99.90;;;;;;5002994;28;20193;-78
2021/07/21 12:40:33;;;;;;;16.27;14.60;;;25.80;99.90;;;;;;5027913;28;20221;-81
2021/07/21 12:43:02;;;;;;;15.97;14.43;;;25.70;99.90;;;;;;5024242;28;20180;-78
2021/07/21 12:45:32;;;;;;;16.93;15.20;;;25.90;99.90;;;;;;5003197;28;20577;-78
2021/07/21 12:47:59;;;;;;;16.20;14.70;;;25.80;99.90;;;;;;5001049;28;20211;-78
2021/07/21 12:50:28;;;;;;;16.83;15.23;;;25.90;99.90;;;;;;5008224;28;20201;-79
2021/07/21 12:53:01;;;;;;;16.00;14.50;;;25.90;99.90;;;;;;5015931;28;20200;-79
2021/07/21 12:55:34;;;;;;;15.77;14.17;;;25.90;99.90;;;;;;5028945;28;20223;-79
2021/07/21 12:58:03;;;;;;;18.93;15.80;;;25.90;99.90;;;;;;5024309;28;20206;-79
2021/07/21 13:00:31;;;;;;;16.30;14.80;;;25.80;99.90;;;;;;5027735;28;20278;-79
2021/07/21 13:03:02;;;;;;;15.37;13.87;;;25.90;99.90;;;;;;5016624;28;20648;-80